Prescott Valley, AZ

10:43 AM MST on December 07, 2016 (GMT -0700)
Prescott Valley-Central | | Change Station

Elev 5003 ft 34.61 °N, 112.31 °W | Updated 13 seconds ago

Partly Cloudy
Partly Cloudy
44.2 °F
Feels Like 44 °F
N
0.0
Wind Variable Wind from East
Gusts 0.0 mph

Today
High -- | Low -- °F
--% Chance of Precip.
Yesterday
High -- | Low -- °F
Precip. -- in
Pressure 30.02 in
Visibility 10.0 miles
Clouds Few 2600 ft
Windchill 44 °F
Dew Point 36 °F
Humidity 74%
Rainfall 0.00 in
Snow Depth Not available.
7:23 AM 5:18 PM
First Quarter, 54% visible
METAR KPRC 071653Z 00000KT 10SM FEW026 05/03 A3007 RMK AO2 SLP165 T00500028
Pressure 30.02 in
Visibility 10.0 miles
Clouds Few 2600 ft
Windchill 44 °F
Dew Point 36 °F
Humidity 74%
Rainfall 0.00 in
Snow Depth Not available.
7:23 AM 5:18 PM
First Quarter, 54% visible
METAR KPRC 071653Z 00000KT 10SM FEW026 05/03 A3007 RMK AO2 SLP165 T00500028

10-Day Weather Forecast

Almanac

Astronomy

Dec. 07, 2016 Rise Set
Actual Time
Civil Twilight
Nautical Twilight
Astronomical Twilight
Moon
Length of Visible Light
Length of Day
Tomorrow will be .
, % of the Moon is Illuminated

Today's Extremes

State Highs State Lows

Community

WunderPhotos

Upload Photos

1,956,156 photos uploaded!

WunderBlog® & News

Nearby

Air Quality

  Air Quality AQ Index Pollutant
Not available.

Snow Depth

Station Depth Elevation

Earthquake Activity

City Distance Mag. Time & Date
Minimum magnitude displayed is 2.5.

Coastal Water Temperatures

Place Temperature

Stations

Nearby Weather Stations

Station Location Temp. Windchill Dew Point Humidity Wind Precip. Elev Updated Type
                   

Watches & Warnings

There are currently no watches in effect.